KMOT/MOT METAR and TAF weather

Enter ICAO airport designator
Station Type Date Time Source
KMOT METAR 2022/11/26 09:54 UTC NOAA

KMOT 260954Z AUTO 27014G23KT 10SM CLR 06/M01 A2970 RMK AO2 SLP066 T00611011


Station Type Date Time Source
KMOT Decoded METAR 2022/11/26 09:54 UTC NOAA

MINOT INTERNATIONAL AIRPORT , ND, United States (KMOT) 48-16N 101-17W 519M
Nov 26, 2022 - 04:54 AM EST / 2022.11.26 0954 UTC
Wind: from the W (270 degrees) at 16 MPH (14 KT) gusting to 26 MPH (23 KT):0
Visibility: 10 mile(s):0
Sky conditions: clear
Temperature: 43.0 F (6.1 C)
Dew Point: 30.0 F (-1.1 C)
Relative Humidity: 59%
Pressure (altimeter): 29.7 in. Hg (1005 hPa)
ob: KMOT 260954Z AUTO 27014G23KT 10SM CLR 06/M01 A2970 RMK AO2 SLP066 T00611011
cycle: 10

Station Type Date Time Source
KMOT TAF 2022/11/26 06:27 UTC NOAA

TAF KMOT 260524Z 2606/2706 24014KT P6SM BKN250
FM261000 29012KT P6SM BKN200
FM261500 31013G22KT P6SM BKN200
FM262300 30011KT P6SM FEW250

Example: see airport list